sensor_id;sensor_type;location;lat;lon;timestamp;P1;durP1;ratioP1;P2;durP2;ratioP2
2544;SDS011;36212;48.838;9.142;2023-12-22T00:01:21;3.70;;;3.40;;
2544;SDS011;36212;48.838;9.142;2023-12-22T00:03:54;4.97;;;3.50;;
2544;SDS011;36212;48.838;9.142;2023-12-22T00:06:26;3.85;;;3.50;;
2544;SDS011;36212;48.838;9.142;2023-12-22T00:08:59;3.63;;;3.28;;
2544;SDS011;36212;48.838;9.142;2023-12-22T00:11:31;3.58;;;3.30;;
2544;SDS011;36212;48.838;9.142;2023-12-22T00:22:00;7.28;;;5.53;;
2544;SDS011;36212;48.838;9.142;2023-12-22T00:24:34;6.40;;;5.85;;
2544;SDS011;36212;48.838;9.142;2023-12-22T00:27:06;7.05;;;6.53;;
2544;SDS011;36212;48.838;9.142;2023-12-22T00:29:39;6.45;;;6.13;;
2544;SDS011;36212;48.838;9.142;2023-12-22T00:32:11;7.43;;;7.03;;
2544;SDS011;36212;48.838;9.142;2023-12-22T00:34:43;7.20;;;6.90;;
2544;SDS011;36212;48.838;9.142;2023-12-22T00:37:16;6.03;;;5.72;;
2544;SDS011;36212;48.838;9.142;2023-12-22T00:39:48;5.30;;;5.00;;
2544;SDS011;36212;48.838;9.142;2023-12-22T00:42:20;6.13;;;5.63;;
2544;SDS011;36212;48.838;9.142;2023-12-22T00:44:53;6.15;;;5.70;;
2544;SDS011;36212;48.838;9.142;2023-12-22T00:47:25;6.57;;;6.38;;
2544;SDS011;36212;48.838;9.142;2023-12-22T00:49:58;7.95;;;7.45;;
2544;SDS011;36212;48.838;9.142;2023-12-22T00:52:31;8.20;;;7.65;;
2544;SDS011;36212;48.838;9.142;2023-12-22T00:55:04;9.00;;;8.30;;
2544;SDS011;36212;48.838;9.142;2023-12-22T00:57:37;8.90;;;8.40;;
2544;SDS011;36212;48.838;9.142;2023-12-22T01:00:10;7.97;;;7.55;;
2544;SDS011;36212;48.838;9.142;2023-12-22T01:02:44;8.63;;;8.15;;
2544;SDS011;36212;48.838;9.142;2023-12-22T01:05:17;9.00;;;8.60;;
2544;SDS011;36212;48.838;9.142;2023-12-22T01:07:49;9.55;;;8.95;;
2544;SDS011;36212;48.838;9.142;2023-12-22T01:10:22;8.85;;;8.18;;
2544;SDS011;36212;48.838;9.142;2023-12-22T01:12:54;10.82;;;10.10;;
2544;SDS011;36212;48.838;9.142;2023-12-22T01:15:27;10.30;;;9.15;;
2544;SDS011;36212;48.838;9.142;2023-12-22T01:17:59;9.35;;;8.48;;
2544;SDS011;36212;48.838;9.142;2023-12-22T01:20:32;8.85;;;8.45;;
2544;SDS011;36212;48.838;9.142;2023-12-22T01:23:04;9.35;;;8.75;;
2544;SDS011;36212;48.838;9.142;2023-12-22T01:25:36;8.02;;;7.47;;
2544;SDS011;36212;48.838;9.142;2023-12-22T01:28:09;8.73;;;7.68;;
2544;SDS011;36212;48.838;9.142;2023-12-22T01:30:41;8.30;;;7.53;;
2544;SDS011;36212;48.838;9.142;2023-12-22T01:33:13;6.80;;;6.50;;
2544;SDS011;36212;48.838;9.142;2023-12-22T01:35:46;6.93;;;6.43;;
2544;SDS011;36212;48.838;9.142;2023-12-22T01:38:18;6.32;;;5.63;;
2544;SDS011;36212;48.838;9.142;2023-12-22T01:40:51;5.90;;;5.53;;
2544;SDS011;36212;48.838;9.142;2023-12-22T01:43:23;5.68;;;5.45;;
2544;SDS011;36212;48.838;9.142;2023-12-22T01:45:56;5.55;;;5.25;;
2544;SDS011;36212;48.838;9.142;2023-12-22T01:48:31;4.68;;;4.38;;
2544;SDS011;36212;48.838;9.142;2023-12-22T01:51:05;4.05;;;3.85;;
2544;SDS011;36212;48.838;9.142;2023-12-22T01:53:38;5.20;;;4.90;;
2544;SDS011;36212;48.838;9.142;2023-12-22T01:56:11;3.50;;;3.30;;
2544;SDS011;36212;48.838;9.142;2023-12-22T01:58:44;3.67;;;3.38;;
2544;SDS011;36212;48.838;9.142;2023-12-22T02:01:30;3.78;;;3.47;;
2544;SDS011;36212;48.838;9.142;2023-12-22T02:04:04;3.70;;;3.22;;
2544;SDS011;36212;48.838;9.142;2023-12-22T02:06:37;3.33;;;3.03;;
2544;SDS011;36212;48.838;9.142;2023-12-22T02:09:10;3.17;;;2.92;;
2544;SDS011;36212;48.838;9.142;2023-12-22T02:11:42;3.00;;;2.80;;
2544;SDS011;36212;48.838;9.142;2023-12-22T02:14:14;2.70;;;2.50;;
2544;SDS011;36212;48.838;9.142;2023-12-22T02:20:12;3.00;;;2.80;;
2544;SDS011;36212;48.838;9.142;2023-12-22T02:22:45;2.83;;;2.63;;
2544;SDS011;36212;48.838;9.142;2023-12-22T02:25:23;2.92;;;2.72;;
2544;SDS011;36212;48.838;9.142;2023-12-22T02:28:29;3.28;;;3.08;;
2544;SDS011;36212;48.838;9.142;2023-12-22T02:34:00;3.25;;;2.95;;
2544;SDS011;36212;48.838;9.142;2023-12-22T02:36:37;3.20;;;3.00;;
2544;SDS011;36212;48.838;9.142;2023-12-22T02:39:12;2.80;;;2.60;;
2544;SDS011;36212;48.838;9.142;2023-12-22T02:41:46;2.90;;;2.70;;
2544;SDS011;36212;48.838;9.142;2023-12-22T02:44:19;3.00;;;2.80;;
2544;SDS011;36212;48.838;9.142;2023-12-22T02:46:52;4.18;;;2.95;;
2544;SDS011;36212;48.838;9.142;2023-12-22T02:49:24;3.50;;;3.20;;
2544;SDS011;36212;48.838;9.142;2023-12-22T02:51:56;3.20;;;2.63;;
2544;SDS011;36212;48.838;9.142;2023-12-22T02:54:29;3.22;;;2.97;;
2544;SDS011;36212;48.838;9.142;2023-12-22T02:57:03;4.40;;;3.00;;
2544;SDS011;36212;48.838;9.142;2023-12-22T02:59:37;3.58;;;3.28;;
2544;SDS011;36212;48.838;9.142;2023-12-22T03:02:10;3.40;;;3.20;;
2544;SDS011;36212;48.838;9.142;2023-12-22T03:04:43;3.50;;;3.20;;
2544;SDS011;36212;48.838;9.142;2023-12-22T03:07:18;2.95;;;2.75;;
2544;SDS011;36212;48.838;9.142;2023-12-22T03:09:50;3.40;;;3.00;;
2544;SDS011;36212;48.838;9.142;2023-12-22T03:12:22;4.45;;;3.13;;
2544;SDS011;36212;48.838;9.142;2023-12-22T03:14:54;7.72;;;3.70;;
2544;SDS011;36212;48.838;9.142;2023-12-22T03:17:27;6.20;;;3.15;;
2544;SDS011;36212;48.838;9.142;2023-12-22T03:19:59;3.90;;;3.38;;
2544;SDS011;36212;48.838;9.142;2023-12-22T03:22:31;6.88;;;3.10;;
2544;SDS011;36212;48.838;9.142;2023-12-22T03:25:04;4.47;;;3.00;;
2544;SDS011;36212;48.838;9.142;2023-12-22T03:27:36;3.20;;;2.95;;
2544;SDS011;36212;48.838;9.142;2023-12-22T03:30:09;3.08;;;2.50;;
2544;SDS011;36212;48.838;9.142;2023-12-22T03:32:42;2.88;;;2.50;;
2544;SDS011;36212;48.838;9.142;2023-12-22T03:35:15;6.50;;;3.22;;
2544;SDS011;36212;48.838;9.142;2023-12-22T03:37:47;3.88;;;3.30;;
2544;SDS011;36212;48.838;9.142;2023-12-22T03:40:20;2.80;;;2.60;;
2544;SDS011;36212;48.838;9.142;2023-12-22T03:42:52;4.15;;;2.75;;
2544;SDS011;36212;48.838;9.142;2023-12-22T03:45:24;4.95;;;3.17;;
2544;SDS011;36212;48.838;9.142;2023-12-22T03:47:56;5.22;;;2.92;;
2544;SDS011;36212;48.838;9.142;2023-12-22T03:50:28;3.22;;;2.92;;
2544;SDS011;36212;48.838;9.142;2023-12-22T03:53:01;4.05;;;3.47;;
2544;SDS011;36212;48.838;9.142;2023-12-22T03:55:33;3.28;;;3.08;;
2544;SDS011;36212;48.838;9.142;2023-12-22T03:58:05;4.70;;;3.03;;
2544;SDS011;36212;48.838;9.142;2023-12-22T04:00:40;4.38;;;3.10;;
2544;SDS011;36212;48.838;9.142;2023-12-22T04:03:13;7.10;;;3.25;;
2544;SDS011;36212;48.838;9.142;2023-12-22T04:05:45;3.28;;;3.08;;
2544;SDS011;36212;48.838;9.142;2023-12-22T04:08:17;5.10;;;3.30;;
2544;SDS011;36212;48.838;9.142;2023-12-22T04:10:51;3.70;;;3.40;;
2544;SDS011;36212;48.838;9.142;2023-12-22T04:13:24;3.78;;;3.10;;
2544;SDS011;36212;48.838;9.142;2023-12-22T04:15:56;3.90;;;3.60;;
2544;SDS011;36212;48.838;9.142;2023-12-22T04:18:28;4.47;;;4.05;;
2544;SDS011;36212;48.838;9.142;2023-12-22T04:21:01;3.83;;;3.45;;
2544;SDS011;36212;48.838;9.142;2023-12-22T04:23:34;5.82;;;3.60;;
2544;SDS011;36212;48.838;9.142;2023-12-22T04:26:06;5.57;;;3.90;;
2544;SDS011;36212;48.838;9.142;2023-12-22T04:28:38;6.53;;;3.67;;
2544;SDS011;36212;48.838;9.142;2023-12-22T04:31:11;4.05;;;3.30;;
2544;SDS011;36212;48.838;9.142;2023-12-22T04:33:43;3.67;;;3.33;;
2544;SDS011;36212;48.838;9.142;2023-12-22T04:36:15;5.40;;;3.50;;
2544;SDS011;36212;48.838;9.142;2023-12-22T04:38:48;4.05;;;3.75;;
2544;SDS011;36212;48.838;9.142;2023-12-22T04:41:20;4.78;;;3.80;;
2544;SDS011;36212;48.838;9.142;2023-12-22T04:43:52;8.65;;;3.53;;
2544;SDS011;36212;48.838;9.142;2023-12-22T04:46:24;3.63;;;3.33;;
2544;SDS011;36212;48.838;9.142;2023-12-22T04:48:57;5.22;;;3.05;;
2544;SDS011;36212;48.838;9.142;2023-12-22T04:51:29;4.10;;;3.60;;
2544;SDS011;36212;48.838;9.142;2023-12-22T04:54:01;3.40;;;3.20;;
2544;SDS011;36212;48.838;9.142;2023-12-22T04:56:34;5.97;;;3.20;;
2544;SDS011;36212;48.838;9.142;2023-12-22T04:59:06;4.43;;;3.20;;
2544;SDS011;36212;48.838;9.142;2023-12-22T05:01:39;5.20;;;3.00;;
2544;SDS011;36212;48.838;9.142;2023-12-22T05:04:12;3.42;;;3.13;;
2544;SDS011;36212;48.838;9.142;2023-12-22T05:06:45;3.33;;;3.00;;
2544;SDS011;36212;48.838;9.142;2023-12-22T05:09:18;5.35;;;3.10;;
2544;SDS011;36212;48.838;9.142;2023-12-22T05:11:50;4.82;;;3.40;;
2544;SDS011;36212;48.838;9.142;2023-12-22T05:14:23;4.63;;;3.05;;
2544;SDS011;36212;48.838;9.142;2023-12-22T05:16:55;3.58;;;3.28;;
2544;SDS011;36212;48.838;9.142;2023-12-22T05:19:28;4.75;;;4.18;;
2544;SDS011;36212;48.838;9.142;2023-12-22T05:22:00;4.50;;;3.90;;
2544;SDS011;36212;48.838;9.142;2023-12-22T05:24:33;6.60;;;4.28;;
2544;SDS011;36212;48.838;9.142;2023-12-22T05:27:07;8.68;;;3.60;;
2544;SDS011;36212;48.838;9.142;2023-12-22T05:29:39;7.72;;;4.63;;
2544;SDS011;36212;48.838;9.142;2023-12-22T05:32:12;8.55;;;3.42;;
2544;SDS011;36212;48.838;9.142;2023-12-22T05:34:44;7.13;;;3.75;;
2544;SDS011;36212;48.838;9.142;2023-12-22T05:37:17;6.95;;;4.00;;
2544;SDS011;36212;48.838;9.142;2023-12-22T05:39:49;8.60;;;5.47;;
2544;SDS011;36212;48.838;9.142;2023-12-22T05:42:21;4.10;;;3.80;;
2544;SDS011;36212;48.838;9.142;2023-12-22T05:44:54;7.28;;;3.83;;
2544;SDS011;36212;48.838;9.142;2023-12-22T05:47:26;7.38;;;3.85;;
2544;SDS011;36212;48.838;9.142;2023-12-22T05:49:59;4.72;;;3.30;;
2544;SDS011;36212;48.838;9.142;2023-12-22T05:52:31;7.20;;;3.72;;
2544;SDS011;36212;48.838;9.142;2023-12-22T05:55:04;5.22;;;3.60;;
2544;SDS011;36212;48.838;9.142;2023-12-22T05:57:38;6.05;;;4.00;;
2544;SDS011;36212;48.838;9.142;2023-12-22T06:00:11;10.90;;;4.20;;
2544;SDS011;36212;48.838;9.142;2023-12-22T06:02:45;9.75;;;4.35;;
2544;SDS011;36212;48.838;9.142;2023-12-22T06:05:17;6.30;;;4.40;;
2544;SDS011;36212;48.838;9.142;2023-12-22T06:07:50;6.10;;;4.05;;
2544;SDS011;36212;48.838;9.142;2023-12-22T06:10:23;6.50;;;4.90;;
2544;SDS011;36212;48.838;9.142;2023-12-22T06:12:55;6.68;;;4.15;;
2544;SDS011;36212;48.838;9.142;2023-12-22T06:15:33;7.15;;;4.13;;
2544;SDS011;36212;48.838;9.142;2023-12-22T06:18:06;5.60;;;3.90;;
2544;SDS011;36212;48.838;9.142;2023-12-22T06:20:38;10.18;;;4.30;;
2544;SDS011;36212;48.838;9.142;2023-12-22T06:23:11;4.20;;;3.70;;
2544;SDS011;36212;48.838;9.142;2023-12-22T06:25:43;6.57;;;5.43;;
2544;SDS011;36212;48.838;9.142;2023-12-22T06:28:18;6.07;;;4.30;;
2544;SDS011;36212;48.838;9.142;2023-12-22T06:30:50;8.88;;;3.75;;
2544;SDS011;36212;48.838;9.142;2023-12-22T06:33:24;4.28;;;3.85;;
2544;SDS011;36212;48.838;9.142;2023-12-22T06:35:57;8.40;;;4.35;;
2544;SDS011;36212;48.838;9.142;2023-12-22T06:38:30;3.70;;;3.40;;
2544;SDS011;36212;48.838;9.142;2023-12-22T06:41:02;7.07;;;5.30;;
2544;SDS011;36212;48.838;9.142;2023-12-22T06:43:35;7.72;;;4.15;;
2544;SDS011;36212;48.838;9.142;2023-12-22T06:46:14;7.13;;;3.95;;
2544;SDS011;36212;48.838;9.142;2023-12-22T06:48:48;5.82;;;4.38;;
2544;SDS011;36212;48.838;9.142;2023-12-22T06:51:28;6.68;;;4.10;;
2544;SDS011;36212;48.838;9.142;2023-12-22T06:54:08;9.15;;;3.67;;
2544;SDS011;36212;48.838;9.142;2023-12-22T06:56:46;5.68;;;3.90;;
2544;SDS011;36212;48.838;9.142;2023-12-22T07:03:10;5.75;;;3.47;;
2544;SDS011;36212;48.838;9.142;2023-12-22T07:05:46;4.22;;;3.63;;
2544;SDS011;36212;48.838;9.142;2023-12-22T07:08:19;9.35;;;4.38;;
2544;SDS011;36212;48.838;9.142;2023-12-22T07:10:52;5.20;;;3.85;;
2544;SDS011;36212;48.838;9.142;2023-12-22T07:13:24;3.95;;;3.50;;
2544;SDS011;36212;48.838;9.142;2023-12-22T07:15:56;3.35;;;3.15;;
2544;SDS011;36212;48.838;9.142;2023-12-22T07:18:29;7.22;;;3.65;;
2544;SDS011;36212;48.838;9.142;2023-12-22T07:21:02;7.60;;;4.28;;
2544;SDS011;36212;48.838;9.142;2023-12-22T07:23:35;11.48;;;4.22;;
2544;SDS011;36212;48.838;9.142;2023-12-22T07:26:08;9.05;;;4.05;;
2544;SDS011;36212;48.838;9.142;2023-12-22T07:28:43;10.60;;;4.03;;
2544;SDS011;36212;48.838;9.142;2023-12-22T07:31:16;7.43;;;3.55;;
2544;SDS011;36212;48.838;9.142;2023-12-22T07:33:49;6.07;;;4.05;;
2544;SDS011;36212;48.838;9.142;2023-12-22T07:36:22;6.45;;;4.00;;
2544;SDS011;36212;48.838;9.142;2023-12-22T07:38:54;8.70;;;3.60;;
2544;SDS011;36212;48.838;9.142;2023-12-22T07:41:30;4.70;;;3.20;;
2544;SDS011;36212;48.838;9.142;2023-12-22T07:44:03;4.78;;;3.50;;
2544;SDS011;36212;48.838;9.142;2023-12-22T07:46:37;3.65;;;3.35;;
2544;SDS011;36212;48.838;9.142;2023-12-22T07:49:10;6.55;;;3.28;;
2544;SDS011;36212;48.838;9.142;2023-12-22T07:51:47;4.95;;;3.30;;
2544;SDS011;36212;48.838;9.142;2023-12-22T07:54:22;4.68;;;4.28;;
2544;SDS011;36212;48.838;9.142;2023-12-22T07:56:56;5.38;;;3.75;;
2544;SDS011;36212;48.838;9.142;2023-12-22T07:59:28;5.07;;;3.40;;
2544;SDS011;36212;48.838;9.142;2023-12-22T08:02:03;5.63;;;3.50;;
2544;SDS011;36212;48.838;9.142;2023-12-22T08:04:36;7.57;;;3.53;;
2544;SDS011;36212;48.838;9.142;2023-12-22T08:07:08;10.93;;;3.60;;
2544;SDS011;36212;48.838;9.142;2023-12-22T08:09:41;3.33;;;3.03;;
2544;SDS011;36212;48.838;9.142;2023-12-22T08:12:13;6.95;;;3.78;;
2544;SDS011;36212;48.838;9.142;2023-12-22T08:14:47;4.65;;;3.42;;
2544;SDS011;36212;48.838;9.142;2023-12-22T08:17:19;5.25;;;3.78;;
2544;SDS011;36212;48.838;9.142;2023-12-22T08:19:52;9.02;;;3.45;;
2544;SDS011;36212;48.838;9.142;2023-12-22T08:22:27;7.45;;;3.47;;
2544;SDS011;36212;48.838;9.142;2023-12-22T08:25:03;5.30;;;4.15;;
2544;SDS011;36212;48.838;9.142;2023-12-22T08:27:38;5.88;;;3.67;;
2544;SDS011;36212;48.838;9.142;2023-12-22T08:30:11;5.97;;;4.68;;
2544;SDS011;36212;48.838;9.142;2023-12-22T08:32:45;4.88;;;4.47;;
2544;SDS011;36212;48.838;9.142;2023-12-22T08:35:17;9.63;;;4.57;;
2544;SDS011;36212;48.838;9.142;2023-12-22T08:37:50;7.80;;;5.20;;
2544;SDS011;36212;48.838;9.142;2023-12-22T08:40:23;10.60;;;5.55;;
2544;SDS011;36212;48.838;9.142;2023-12-22T08:42:59;8.00;;;5.15;;
2544;SDS011;36212;48.838;9.142;2023-12-22T08:45:33;9.02;;;5.82;;
2544;SDS011;36212;48.838;9.142;2023-12-22T08:48:06;10.10;;;6.38;;
2544;SDS011;36212;48.838;9.142;2023-12-22T08:50:41;11.38;;;5.10;;
2544;SDS011;36212;48.838;9.142;2023-12-22T08:53:13;10.05;;;5.00;;
2544;SDS011;36212;48.838;9.142;2023-12-22T08:55:46;10.38;;;5.75;;
2544;SDS011;36212;48.838;9.142;2023-12-22T08:58:19;8.88;;;4.75;;
2544;SDS011;36212;48.838;9.142;2023-12-22T09:00:52;14.43;;;5.15;;
2544;SDS011;36212;48.838;9.142;2023-12-22T09:03:25;9.05;;;5.07;;
2544;SDS011;36212;48.838;9.142;2023-12-22T09:06:03;11.32;;;4.45;;
2544;SDS011;36212;48.838;9.142;2023-12-22T09:08:38;4.63;;;4.00;;
2544;SDS011;36212;48.838;9.142;2023-12-22T09:11:17;9.80;;;5.70;;
2544;SDS011;36212;48.838;9.142;2023-12-22T09:14:18;8.10;;;4.55;;
2544;SDS011;36212;48.838;9.142;2023-12-22T09:16:52;12.88;;;4.53;;
2544;SDS011;36212;48.838;9.142;2023-12-22T09:19:28;11.02;;;5.35;;
2544;SDS011;36212;48.838;9.142;2023-12-22T09:22:04;10.07;;;5.88;;
2544;SDS011;36212;48.838;9.142;2023-12-22T09:24:51;8.50;;;4.38;;
2544;SDS011;36212;48.838;9.142;2023-12-22T09:27:24;7.13;;;4.18;;
2544;SDS011;36212;48.838;9.142;2023-12-22T09:30:02;10.98;;;4.93;;
2544;SDS011;36212;48.838;9.142;2023-12-22T09:32:39;6.82;;;4.60;;
2544;SDS011;36212;48.838;9.142;2023-12-22T09:35:12;7.25;;;3.97;;
2544;SDS011;36212;48.838;9.142;2023-12-22T09:37:47;8.80;;;4.50;;
2544;SDS011;36212;48.838;9.142;2023-12-22T09:40:21;8.48;;;4.70;;
2544;SDS011;36212;48.838;9.142;2023-12-22T09:42:57;10.85;;;4.68;;
2544;SDS011;36212;48.838;9.142;2023-12-22T09:45:32;7.65;;;4.50;;
2544;SDS011;36212;48.838;9.142;2023-12-22T09:48:06;11.57;;;5.78;;
2544;SDS011;36212;48.838;9.142;2023-12-22T09:50:43;11.02;;;4.78;;
2544;SDS011;36212;48.838;9.142;2023-12-22T09:53:16;6.22;;;4.18;;
2544;SDS011;36212;48.838;9.142;2023-12-22T09:55:51;7.57;;;4.65;;
2544;SDS011;36212;48.838;9.142;2023-12-22T09:58:26;14.02;;;4.70;;
2544;SDS011;36212;48.838;9.142;2023-12-22T10:00:59;7.50;;;4.85;;
2544;SDS011;36212;48.838;9.142;2023-12-22T10:03:37;11.77;;;4.47;;
2544;SDS011;36212;48.838;9.142;2023-12-22T10:06:11;5.22;;;4.28;;
2544;SDS011;36212;48.838;9.142;2023-12-22T10:08:45;9.15;;;4.20;;
2544;SDS011;36212;48.838;9.142;2023-12-22T12:10:52;2.80;;;2.70;;
2544;SDS011;36212;48.838;9.142;2023-12-22T12:13:27;2.58;;;2.47;;
2544;SDS011;36212;48.838;9.142;2023-12-22T12:16:01;7.25;;;2.97;;
2544;SDS011;36212;48.838;9.142;2023-12-22T12:18:36;2.53;;;2.40;;
2544;SDS011;36212;48.838;9.142;2023-12-22T12:21:10;3.03;;;2.80;;
2544;SDS011;36212;48.838;9.142;2023-12-22T12:23:43;3.47;;;3.17;;
2544;SDS011;36212;48.838;9.142;2023-12-22T12:26:19;5.30;;;3.15;;
2544;SDS011;36212;48.838;9.142;2023-12-22T12:28:52;3.90;;;3.60;;
2544;SDS011;36212;48.838;9.142;2023-12-22T12:31:35;4.50;;;4.20;;
2544;SDS011;36212;48.838;9.142;2023-12-22T12:34:13;4.80;;;4.50;;
2544;SDS011;36212;48.838;9.142;2023-12-22T12:36:52;9.00;;;5.88;;
2544;SDS011;36212;48.838;9.142;2023-12-22T12:39:29;13.20;;;10.63;;
2544;SDS011;36212;48.838;9.142;2023-12-22T12:42:05;7.03;;;6.32;;
2544;SDS011;36212;48.838;9.142;2023-12-22T12:44:43;7.97;;;7.10;;
2544;SDS011;36212;48.838;9.142;2023-12-22T12:47:18;7.25;;;6.65;;
2544;SDS011;36212;48.838;9.142;2023-12-22T12:49:58;13.75;;;9.90;;
2544;SDS011;36212;48.838;9.142;2023-12-22T12:52:33;5.43;;;4.88;;
2544;SDS011;36212;48.838;9.142;2023-12-22T12:55:07;4.93;;;4.47;;
2544;SDS011;36212;48.838;9.142;2023-12-22T12:57:41;3.20;;;3.00;;
2544;SDS011;36212;48.838;9.142;2023-12-22T13:00:13;3.58;;;2.35;;
2544;SDS011;36212;48.838;9.142;2023-12-22T13:03:06;3.63;;;3.42;;
2544;SDS011;36212;48.838;9.142;2023-12-22T13:05:39;3.10;;;3.00;;
2544;SDS011;36212;48.838;9.142;2023-12-22T13:08:13;2.80;;;2.70;;
2544;SDS011;36212;48.838;9.142;2023-12-22T13:10:45;3.03;;;2.90;;
2544;SDS011;36212;48.838;9.142;2023-12-22T13:13:29;4.95;;;4.53;;
2544;SDS011;36212;48.838;9.142;2023-12-22T13:16:11;3.40;;;3.30;;
2544;SDS011;36212;48.838;9.142;2023-12-22T13:18:48;3.13;;;2.90;;
2544;SDS011;36212;48.838;9.142;2023-12-22T13:21:21;2.38;;;2.28;;
2544;SDS011;36212;48.838;9.142;2023-12-22T13:24:14;2.85;;;2.75;;
2544;SDS011;36212;48.838;9.142;2023-12-22T13:27:00;4.82;;;2.20;;
2544;SDS011;36212;48.838;9.142;2023-12-22T13:29:43;2.38;;;2.28;;
2544;SDS011;36212;48.838;9.142;2023-12-22T13:32:19;3.00;;;2.90;;
2544;SDS011;36212;48.838;9.142;2023-12-22T13:34:55;3.13;;;2.92;;
2544;SDS011;36212;48.838;9.142;2023-12-22T13:37:29;2.53;;;2.33;;
2544;SDS011;36212;48.838;9.142;2023-12-22T13:40:06;2.28;;;2.17;;
2544;SDS011;36212;48.838;9.142;2023-12-22T13:42:42;2.70;;;2.60;;
2544;SDS011;36212;48.838;9.142;2023-12-22T13:45:15;2.40;;;2.30;;
2544;SDS011;36212;48.838;9.142;2023-12-22T13:47:48;2.90;;;2.80;;
2544;SDS011;36212;48.838;9.142;2023-12-22T13:50:21;3.22;;;2.38;;
2544;SDS011;36212;48.838;9.142;2023-12-22T13:52:57;2.50;;;2.40;;
2544;SDS011;36212;48.838;9.142;2023-12-22T13:55:43;2.40;;;2.30;;
2544;SDS011;36212;48.838;9.142;2023-12-22T13:58:27;2.05;;;1.95;;
2544;SDS011;36212;48.838;9.142;2023-12-22T14:01:00;2.58;;;2.10;;
2544;SDS011;36212;48.838;9.142;2023-12-22T14:03:48;2.20;;;2.10;;
2544;SDS011;36212;48.838;9.142;2023-12-22T14:06:20;4.15;;;3.90;;
2544;SDS011;36212;48.838;9.142;2023-12-22T14:08:55;2.45;;;2.35;;
2544;SDS011;36212;48.838;9.142;2023-12-22T14:11:28;2.50;;;2.40;;
2544;SDS011;36212;48.838;9.142;2023-12-22T14:14:04;3.20;;;3.10;;
2544;SDS011;36212;48.838;9.142;2023-12-22T14:16:36;2.25;;;2.15;;
2544;SDS011;36212;48.838;9.142;2023-12-22T14:19:09;3.60;;;3.40;;
2544;SDS011;36212;48.838;9.142;2023-12-22T14:21:43;2.47;;;2.38;;
2544;SDS011;36212;48.838;9.142;2023-12-22T14:24:16;2.60;;;2.50;;
2544;SDS011;36212;48.838;9.142;2023-12-22T14:26:55;2.65;;;2.55;;
2544;SDS011;36212;48.838;9.142;2023-12-22T14:29:30;2.40;;;2.30;;
2544;SDS011;36212;48.838;9.142;2023-12-22T14:32:17;2.40;;;2.30;;
2544;SDS011;36212;48.838;9.142;2023-12-22T14:34:52;2.80;;;2.70;;
2544;SDS011;36212;48.838;9.142;2023-12-22T14:37:25;2.40;;;2.30;;
2544;SDS011;36212;48.838;9.142;2023-12-22T14:39:58;2.45;;;2.35;;
2544;SDS011;36212;48.838;9.142;2023-12-22T14:42:31;2.63;;;2.53;;
2544;SDS011;36212;48.838;9.142;2023-12-22T14:45:06;2.45;;;2.35;;
2544;SDS011;36212;48.838;9.142;2023-12-22T14:47:39;2.92;;;2.83;;
2544;SDS011;36212;48.838;9.142;2023-12-22T14:50:12;2.30;;;2.20;;
2544;SDS011;36212;48.838;9.142;2023-12-22T14:52:45;2.40;;;2.30;;
2544;SDS011;36212;48.838;9.142;2023-12-22T14:55:18;3.25;;;3.05;;
2544;SDS011;36212;48.838;9.142;2023-12-22T14:57:52;2.13;;;2.03;;
2544;SDS011;36212;48.838;9.142;2023-12-22T15:00:25;2.50;;;2.35;;
2544;SDS011;36212;48.838;9.142;2023-12-22T15:02:58;2.90;;;2.70;;
2544;SDS011;36212;48.838;9.142;2023-12-22T15:05:31;2.55;;;2.45;;
2544;SDS011;36212;48.838;9.142;2023-12-22T15:08:08;2.50;;;2.40;;
2544;SDS011;36212;48.838;9.142;2023-12-22T15:10:41;2.50;;;2.40;;
2544;SDS011;36212;48.838;9.142;2023-12-22T15:13:13;2.40;;;2.30;;
2544;SDS011;36212;48.838;9.142;2023-12-22T15:15:47;3.00;;;2.80;;
2544;SDS011;36212;48.838;9.142;2023-12-22T15:18:22;2.80;;;2.70;;
2544;SDS011;36212;48.838;9.142;2023-12-22T15:20:54;2.78;;;2.67;;
2544;SDS011;36212;48.838;9.142;2023-12-22T15:23:26;4.18;;;3.88;;
2544;SDS011;36212;48.838;9.142;2023-12-22T15:26:00;4.80;;;3.30;;
2544;SDS011;36212;48.838;9.142;2023-12-22T15:28:33;2.50;;;2.40;;
2544;SDS011;36212;48.838;9.142;2023-12-22T15:31:07;3.00;;;2.80;;
2544;SDS011;36212;48.838;9.142;2023-12-22T15:33:46;2.90;;;2.80;;
2544;SDS011;36212;48.838;9.142;2023-12-22T15:39:49;8.52;;;5.93;;
2544;SDS011;36212;48.838;9.142;2023-12-22T15:42:21;2.75;;;2.65;;
2544;SDS011;36212;48.838;9.142;2023-12-22T15:44:54;3.88;;;3.50;;
2544;SDS011;36212;48.838;9.142;2023-12-22T15:47:27;2.75;;;2.55;;
2544;SDS011;36212;48.838;9.142;2023-12-22T15:50:00;3.15;;;2.95;;
2544;SDS011;36212;48.838;9.142;2023-12-22T15:52:35;7.82;;;5.82;;
2544;SDS011;36212;48.838;9.142;2023-12-22T15:55:08;2.95;;;2.85;;
2544;SDS011;36212;48.838;9.142;2023-12-22T15:57:46;4.63;;;3.85;;
2544;SDS011;36212;48.838;9.142;2023-12-22T16:00:18;3.75;;;3.55;;
2544;SDS011;36212;48.838;9.142;2023-12-22T16:02:51;2.90;;;2.80;;
2544;SDS011;36212;48.838;9.142;2023-12-22T16:05:24;3.53;;;3.33;;
2544;SDS011;36212;48.838;9.142;2023-12-22T16:07:58;4.05;;;3.85;;
2544;SDS011;36212;48.838;9.142;2023-12-22T16:10:34;3.10;;;3.00;;
2544;SDS011;36212;48.838;9.142;2023-12-22T16:13:06;4.00;;;3.80;;
2544;SDS011;36212;48.838;9.142;2023-12-22T16:15:45;3.17;;;2.97;;
2544;SDS011;36212;48.838;9.142;2023-12-22T16:18:18;3.65;;;3.50;;
2544;SDS011;36212;48.838;9.142;2023-12-22T16:20:52;4.57;;;4.20;;
2544;SDS011;36212;48.838;9.142;2023-12-22T16:23:25;4.35;;;4.05;;
2544;SDS011;36212;48.838;9.142;2023-12-22T16:30:35;5.07;;;4.75;;
2544;SDS011;36212;48.838;9.142;2023-12-22T16:33:09;2.90;;;2.80;;
2544;SDS011;36212;48.838;9.142;2023-12-22T16:35:43;4.00;;;3.70;;
2544;SDS011;36212;48.838;9.142;2023-12-22T16:38:16;3.00;;;2.90;;
2544;SDS011;36212;48.838;9.142;2023-12-22T16:40:48;3.10;;;3.00;;
2544;SDS011;36212;48.838;9.142;2023-12-22T16:43:21;4.00;;;3.70;;
2544;SDS011;36212;48.838;9.142;2023-12-22T16:45:53;2.92;;;2.83;;
2544;SDS011;36212;48.838;9.142;2023-12-22T16:48:26;2.85;;;2.75;;
2544;SDS011;36212;48.838;9.142;2023-12-22T16:50:58;3.65;;;3.50;;
2544;SDS011;36212;48.838;9.142;2023-12-22T16:53:34;3.58;;;3.47;;
2544;SDS011;36212;48.838;9.142;2023-12-22T16:59:03;5.50;;;4.20;;
2544;SDS011;36212;48.838;9.142;2023-12-22T17:01:37;8.70;;;7.05;;
2544;SDS011;36212;48.838;9.142;2023-12-22T17:04:17;3.97;;;3.78;;
2544;SDS011;36212;48.838;9.142;2023-12-22T17:06:50;3.83;;;3.53;;
2544;SDS011;36212;48.838;9.142;2023-12-22T17:09:26;9.63;;;8.73;;
2544;SDS011;36212;48.838;9.142;2023-12-22T17:11:59;2.72;;;2.63;;
2544;SDS011;36212;48.838;9.142;2023-12-22T17:14:33;3.55;;;3.45;;
2544;SDS011;36212;48.838;9.142;2023-12-22T17:17:06;3.80;;;3.70;;
2544;SDS011;36212;48.838;9.142;2023-12-22T17:19:39;3.60;;;3.40;;
2544;SDS011;36212;48.838;9.142;2023-12-22T17:22:12;3.92;;;3.72;;
2544;SDS011;36212;48.838;9.142;2023-12-22T17:24:45;2.92;;;2.83;;
2544;SDS011;36212;48.838;9.142;2023-12-22T17:27:18;3.22;;;3.03;;
2544;SDS011;36212;48.838;9.142;2023-12-22T17:29:50;3.28;;;3.17;;
2544;SDS011;36212;48.838;9.142;2023-12-22T17:32:24;3.30;;;3.20;;
2544;SDS011;36212;48.838;9.142;2023-12-22T17:34:57;2.85;;;2.70;;
2544;SDS011;36212;48.838;9.142;2023-12-22T17:37:30;3.10;;;3.00;;
2544;SDS011;36212;48.838;9.142;2023-12-22T17:40:02;2.65;;;2.55;;
2544;SDS011;36212;48.838;9.142;2023-12-22T17:42:37;4.18;;;3.83;;
2544;SDS011;36212;48.838;9.142;2023-12-22T17:45:13;2.60;;;2.50;;
2544;SDS011;36212;48.838;9.142;2023-12-22T17:47:45;3.42;;;3.30;;
2544;SDS011;36212;48.838;9.142;2023-12-22T17:50:18;3.63;;;3.42;;
2544;SDS011;36212;48.838;9.142;2023-12-22T17:52:52;3.30;;;3.10;;
2544;SDS011;36212;48.838;9.142;2023-12-22T17:59:56;3.00;;;2.90;;
2544;SDS011;36212;48.838;9.142;2023-12-22T18:02:29;2.50;;;2.40;;
2544;SDS011;36212;48.838;9.142;2023-12-22T18:05:02;3.00;;;2.90;;
2544;SDS011;36212;48.838;9.142;2023-12-22T18:07:35;3.03;;;2.72;;
2544;SDS011;36212;48.838;9.142;2023-12-22T18:10:08;2.95;;;2.85;;
2544;SDS011;36212;48.838;9.142;2023-12-22T18:12:42;2.20;;;2.10;;
2544;SDS011;36212;48.838;9.142;2023-12-22T18:15:17;2.50;;;2.40;;